Aérodrome :
LOGIN :

S'inscrire | Disclaimer

   EN    FR    IT 

 










Légende :    VFR   VFR Marginal   IFR   IFR Intensif   IFR Très Intensif
Visi : 
Plafond : 
>= 8 km
>= 3000ft
5 à 8 km
1000 à 3000 ft
1500m à 5 km
500 à 1000 ft
800 à 1500m
200 à 500 ft
< 800m
< 200 ft
Symboles :   Orages  Brouillard  Fortes neiges  Fortes précipitations  Vent > 20 kt
SIGMETs :   Divers  Orages  Givrage  Turbulence  Onde Orograph.  Cendres Volcan.






- Altitude de l'aérodrome : 1768 ft


LEHC - Huesca Pirineos

DERNIER METAR :
  • 150530Z AUTO 25006KT CAVOK 06/04 Q1013

METARs EXPIRÉS :
  • 150500Z AUTO 25005KT CAVOK 06/04 Q1013
  • 150430Z AUTO 23005KT CAVOK 06/04 Q1014
  • 150400Z AUTO 23003KT CAVOK 05/04 Q1013
  • 150330Z AUTO 28005KT CAVOK 05/03 Q1014
  • 150300Z AUTO 25005KT CAVOK 07/04 Q1014

TAF TAF LEHC
Valide du 15 à 03h jusqu'au 16 à 03h UTC


150200Z 1503/1603 33005KT 9999 FEW040 TX13/1513Z TN04/1506Z
PROB30
TEMPO 1503/1508 3000 BR



MET'MAP, la Météo Aéronautique d'un coup d'oeil ! - Copyright ORBIFLY Décembre 2007 - Disclaimer

ORBIFLY MET'MAP TEAM :

Programmation & Développement : Alexandra Zaïnal
Sur une idée originale de : Baudouin d'Aumeries
Assistance à la programmation : Marc-Olivier Méhu
Soutien technique & logistique : Manuel Goepfert

Contact : metmap@orbifly.com




SOURCES & CREDITS :

   NOAA